sensor_id;sensor_type;location;lat;lon;timestamp;temperature;humidity
6110;DHT22;3085;49.444;11.054;2024-03-22T00:00:59;10.60;99.90
6110;DHT22;3085;49.444;11.054;2024-03-22T00:03:26;10.50;99.90
6110;DHT22;3085;49.444;11.054;2024-03-22T00:05:52;10.50;99.90
6110;DHT22;3085;49.444;11.054;2024-03-22T00:08:19;10.50;99.90
6110;DHT22;3085;49.444;11.054;2024-03-22T00:10:45;10.50;99.90
6110;DHT22;3085;49.444;11.054;2024-03-22T00:13:11;10.50;99.90
6110;DHT22;3085;49.444;11.054;2024-03-22T00:15:39;10.50;99.90
6110;DHT22;3085;49.444;11.054;2024-03-22T00:18:07;10.40;99.90
6110;DHT22;3085;49.444;11.054;2024-03-22T00:20:33;10.40;99.90
6110;DHT22;3085;49.444;11.054;2024-03-22T00:23:00;10.40;99.90
6110;DHT22;3085;49.444;11.054;2024-03-22T00:25:26;10.40;99.90
6110;DHT22;3085;49.444;11.054;2024-03-22T00:27:53;10.30;99.90
6110;DHT22;3085;49.444;11.054;2024-03-22T00:30:19;10.30;99.90
6110;DHT22;3085;49.444;11.054;2024-03-22T00:32:47;10.20;99.90
6110;DHT22;3085;49.444;11.054;2024-03-22T00:35:13;10.20;99.90
6110;DHT22;3085;49.444;11.054;2024-03-22T00:37:40;10.10;99.90
6110;DHT22;3085;49.444;11.054;2024-03-22T00:40:06;10.50;99.90
6110;DHT22;3085;49.444;11.054;2024-03-22T00:42:33;10.10;99.90
6110;DHT22;3085;49.444;11.054;2024-03-22T00:44:59;10.00;99.90
6110;DHT22;3085;49.444;11.054;2024-03-22T00:47:26;10.00;99.90
6110;DHT22;3085;49.444;11.054;2024-03-22T00:49:53;10.00;99.90
6110;DHT22;3085;49.444;11.054;2024-03-22T00:52:19;10.00;99.90
6110;DHT22;3085;49.444;11.054;2024-03-22T00:54:45;10.00;99.90
6110;DHT22;3085;49.444;11.054;2024-03-22T00:57:12;9.90;99.90
6110;DHT22;3085;49.444;11.054;2024-03-22T00:59:37;9.90;99.90
6110;DHT22;3085;49.444;11.054;2024-03-22T01:02:04;10.00;99.90
6110;DHT22;3085;49.444;11.054;2024-03-22T01:04:30;9.80;99.90
6110;DHT22;3085;49.444;11.054;2024-03-22T01:06:58;9.80;99.90
6110;DHT22;3085;49.444;11.054;2024-03-22T01:09:24;10.80;99.90
6110;DHT22;3085;49.444;11.054;2024-03-22T01:11:51;9.90;99.90
6110;DHT22;3085;49.444;11.054;2024-03-22T01:14:16;9.70;99.90
6110;DHT22;3085;49.444;11.054;2024-03-22T01:16:43;9.60;99.90
6110;DHT22;3085;49.444;11.054;2024-03-22T01:19:09;10.50;99.90
6110;DHT22;3085;49.444;11.054;2024-03-22T01:21:36;10.10;99.90
6110;DHT22;3085;49.444;11.054;2024-03-22T01:24:03;9.50;99.90
6110;DHT22;3085;49.444;11.054;2024-03-22T01:26:30;9.50;99.90
6110;DHT22;3085;49.444;11.054;2024-03-22T01:28:56;9.50;99.90
6110;DHT22;3085;49.444;11.054;2024-03-22T01:31:22;9.60;99.90
6110;DHT22;3085;49.444;11.054;2024-03-22T01:33:48;9.50;99.90
6110;DHT22;3085;49.444;11.054;2024-03-22T01:36:15;9.40;99.90
6110;DHT22;3085;49.444;11.054;2024-03-22T01:38:41;9.40;99.90
6110;DHT22;3085;49.444;11.054;2024-03-22T01:41:09;9.40;99.90
6110;DHT22;3085;49.444;11.054;2024-03-22T01:43:35;9.40;99.90
6110;DHT22;3085;49.444;11.054;2024-03-22T01:46:01;9.30;99.90
6110;DHT22;3085;49.444;11.054;2024-03-22T01:48:27;9.30;99.90
6110;DHT22;3085;49.444;11.054;2024-03-22T01:50:54;9.30;99.90
6110;DHT22;3085;49.444;11.054;2024-03-22T01:53:20;9.30;99.90
6110;DHT22;3085;49.444;11.054;2024-03-22T01:55:47;9.30;99.90
6110;DHT22;3085;49.444;11.054;2024-03-22T01:58:16;9.30;99.90
6110;DHT22;3085;49.444;11.054;2024-03-22T02:00:42;9.20;99.90
6110;DHT22;3085;49.444;11.054;2024-03-22T02:03:08;9.20;99.90
6110;DHT22;3085;49.444;11.054;2024-03-22T02:05:34;9.20;99.90
6110;DHT22;3085;49.444;11.054;2024-03-22T02:08:01;9.10;99.90
6110;DHT22;3085;49.444;11.054;2024-03-22T02:10:27;9.60;99.90
6110;DHT22;3085;49.444;11.054;2024-03-22T02:12:53;9.20;99.90
6110;DHT22;3085;49.444;11.054;2024-03-22T02:15:20;9.10;99.90
6110;DHT22;3085;49.444;11.054;2024-03-22T02:17:47;9.10;99.90
6110;DHT22;3085;49.444;11.054;2024-03-22T02:20:13;8.90;99.90
6110;DHT22;3085;49.444;11.054;2024-03-22T02:22:40;9.00;99.90
6110;DHT22;3085;49.444;11.054;2024-03-22T02:25:08;9.00;99.90
6110;DHT22;3085;49.444;11.054;2024-03-22T02:27:34;9.00;99.90
6110;DHT22;3085;49.444;11.054;2024-03-22T02:30:01;9.00;99.90
6110;DHT22;3085;49.444;11.054;2024-03-22T02:32:28;9.00;99.90
6110;DHT22;3085;49.444;11.054;2024-03-22T02:34:54;9.00;99.90
6110;DHT22;3085;49.444;11.054;2024-03-22T02:37:21;9.00;99.90
6110;DHT22;3085;49.444;11.054;2024-03-22T02:39:47;9.00;99.90
6110;DHT22;3085;49.444;11.054;2024-03-22T02:42:15;9.00;99.90
6110;DHT22;3085;49.444;11.054;2024-03-22T02:44:41;8.90;99.90
6110;DHT22;3085;49.444;11.054;2024-03-22T02:47:09;8.90;99.90
6110;DHT22;3085;49.444;11.054;2024-03-22T02:49:35;8.90;99.90
6110;DHT22;3085;49.444;11.054;2024-03-22T02:52:02;8.90;99.90
6110;DHT22;3085;49.444;11.054;2024-03-22T02:54:27;8.90;99.90
6110;DHT22;3085;49.444;11.054;2024-03-22T02:56:54;8.80;99.90
6110;DHT22;3085;49.444;11.054;2024-03-22T02:59:21;8.80;99.90
6110;DHT22;3085;49.444;11.054;2024-03-22T03:01:48;8.70;99.90
6110;DHT22;3085;49.444;11.054;2024-03-22T03:04:15;8.80;99.90
6110;DHT22;3085;49.444;11.054;2024-03-22T03:06:40;8.70;99.90
6110;DHT22;3085;49.444;11.054;2024-03-22T03:09:07;8.70;99.90
6110;DHT22;3085;49.444;11.054;2024-03-22T03:11:33;8.70;99.90
6110;DHT22;3085;49.444;11.054;2024-03-22T03:14:00;8.60;99.90
6110;DHT22;3085;49.444;11.054;2024-03-22T03:16:28;8.70;99.90
6110;DHT22;3085;49.444;11.054;2024-03-22T03:18:55;8.60;99.90
6110;DHT22;3085;49.444;11.054;2024-03-22T03:21:21;8.60;99.90
6110;DHT22;3085;49.444;11.054;2024-03-22T03:23:47;8.50;99.90
6110;DHT22;3085;49.444;11.054;2024-03-22T03:26:13;8.50;99.90
6110;DHT22;3085;49.444;11.054;2024-03-22T03:28:40;8.50;99.90
6110;DHT22;3085;49.444;11.054;2024-03-22T03:31:05;8.40;99.90
6110;DHT22;3085;49.444;11.054;2024-03-22T03:33:34;8.50;99.90
6110;DHT22;3085;49.444;11.054;2024-03-22T03:36:00;8.50;99.90
6110;DHT22;3085;49.444;11.054;2024-03-22T03:38:27;8.50;99.90
6110;DHT22;3085;49.444;11.054;2024-03-22T03:40:52;8.40;99.90
6110;DHT22;3085;49.444;11.054;2024-03-22T03:43:19;8.40;99.90
6110;DHT22;3085;49.444;11.054;2024-03-22T03:45:45;9.10;99.90
6110;DHT22;3085;49.444;11.054;2024-03-22T03:48:12;8.40;99.90
6110;DHT22;3085;49.444;11.054;2024-03-22T03:50:40;8.40;99.90
6110;DHT22;3085;49.444;11.054;2024-03-22T03:53:06;8.40;99.90
6110;DHT22;3085;49.444;11.054;2024-03-22T03:55:33;8.30;99.90
6110;DHT22;3085;49.444;11.054;2024-03-22T03:57:59;8.10;99.90
6110;DHT22;3085;49.444;11.054;2024-03-22T04:00:26;8.10;99.90
6110;DHT22;3085;49.444;11.054;2024-03-22T04:02:52;8.20;99.90
6110;DHT22;3085;49.444;11.054;2024-03-22T04:05:19;8.20;99.90
6110;DHT22;3085;49.444;11.054;2024-03-22T04:07:48;8.20;99.90
6110;DHT22;3085;49.444;11.054;2024-03-22T04:10:15;8.10;99.90
6110;DHT22;3085;49.444;11.054;2024-03-22T04:12:41;8.20;99.90
6110;DHT22;3085;49.444;11.054;2024-03-22T04:15:08;8.20;99.90
6110;DHT22;3085;49.444;11.054;2024-03-22T04:17:34;8.10;99.90
6110;DHT22;3085;49.444;11.054;2024-03-22T04:20:01;9.70;99.90
6110;DHT22;3085;49.444;11.054;2024-03-22T04:22:28;8.10;99.90
6110;DHT22;3085;49.444;11.054;2024-03-22T04:24:56;8.20;99.90
6110;DHT22;3085;49.444;11.054;2024-03-22T04:27:21;8.10;99.90
6110;DHT22;3085;49.444;11.054;2024-03-22T04:29:48;8.50;99.90
6110;DHT22;3085;49.444;11.054;2024-03-22T04:32:14;8.10;99.90
6110;DHT22;3085;49.444;11.054;2024-03-22T04:34:41;8.10;99.90
6110;DHT22;3085;49.444;11.054;2024-03-22T04:37:07;8.10;99.90
6110;DHT22;3085;49.444;11.054;2024-03-22T04:39:34;8.10;99.90
6110;DHT22;3085;49.444;11.054;2024-03-22T04:42:03;8.00;99.90
6110;DHT22;3085;49.444;11.054;2024-03-22T04:44:30;8.00;99.90
6110;DHT22;3085;49.444;11.054;2024-03-22T04:46:56;8.00;99.90
6110;DHT22;3085;49.444;11.054;2024-03-22T04:49:22;8.00;99.90
6110;DHT22;3085;49.444;11.054;2024-03-22T04:51:49;8.00;99.90
6110;DHT22;3085;49.444;11.054;2024-03-22T04:54:15;8.30;99.90
6110;DHT22;3085;49.444;11.054;2024-03-22T04:56:41;7.90;99.90
6110;DHT22;3085;49.444;11.054;2024-03-22T04:59:08;8.00;99.90
6110;DHT22;3085;49.444;11.054;2024-03-22T05:01:35;8.00;99.90
6110;DHT22;3085;49.444;11.054;2024-03-22T05:04:01;7.90;99.90
6110;DHT22;3085;49.444;11.054;2024-03-22T05:06:28;7.90;99.90
6110;DHT22;3085;49.444;11.054;2024-03-22T05:08:54;7.80;99.90
6110;DHT22;3085;49.444;11.054;2024-03-22T05:11:20;7.80;99.90
6110;DHT22;3085;49.444;11.054;2024-03-22T05:13:47;7.70;99.90
6110;DHT22;3085;49.444;11.054;2024-03-22T05:16:14;7.80;99.90
6110;DHT22;3085;49.444;11.054;2024-03-22T05:18:40;7.80;99.90
6110;DHT22;3085;49.444;11.054;2024-03-22T05:21:06;7.70;99.90
6110;DHT22;3085;49.444;11.054;2024-03-22T05:23:33;7.70;99.90
6110;DHT22;3085;49.444;11.054;2024-03-22T05:25:58;7.80;99.90
6110;DHT22;3085;49.444;11.054;2024-03-22T05:28:26;7.80;99.90
6110;DHT22;3085;49.444;11.054;2024-03-22T05:30:51;8.20;99.90
6110;DHT22;3085;49.444;11.054;2024-03-22T05:33:19;7.70;99.90
6110;DHT22;3085;49.444;11.054;2024-03-22T05:35:46;7.80;99.90
6110;DHT22;3085;49.444;11.054;2024-03-22T05:38:13;7.80;99.90
6110;DHT22;3085;49.444;11.054;2024-03-22T05:40:39;7.80;99.90
6110;DHT22;3085;49.444;11.054;2024-03-22T05:43:05;7.80;99.90
6110;DHT22;3085;49.444;11.054;2024-03-22T05:45:31;7.70;99.90
6110;DHT22;3085;49.444;11.054;2024-03-22T05:47:58;7.60;99.90
6110;DHT22;3085;49.444;11.054;2024-03-22T05:50:25;7.80;99.90
6110;DHT22;3085;49.444;11.054;2024-03-22T05:52:52;7.70;99.90
6110;DHT22;3085;49.444;11.054;2024-03-22T05:55:17;7.80;99.90
6110;DHT22;3085;49.444;11.054;2024-03-22T05:57:44;7.90;99.90
6110;DHT22;3085;49.444;11.054;2024-03-22T06:00:10;7.90;99.90
6110;DHT22;3085;49.444;11.054;2024-03-22T06:02:38;7.90;99.90
6110;DHT22;3085;49.444;11.054;2024-03-22T06:05:05;7.90;99.90
6110;DHT22;3085;49.444;11.054;2024-03-22T06:07:33;8.00;99.90
6110;DHT22;3085;49.444;11.054;2024-03-22T06:10:06;7.90;99.90
6110;DHT22;3085;49.444;11.054;2024-03-22T06:12:33;8.10;99.90
6110;DHT22;3085;49.444;11.054;2024-03-22T06:14:59;8.00;99.90
6110;DHT22;3085;49.444;11.054;2024-03-22T06:17:25;8.00;99.90
6110;DHT22;3085;49.444;11.054;2024-03-22T06:19:51;8.00;99.90
6110;DHT22;3085;49.444;11.054;2024-03-22T06:22:18;8.00;99.90
6110;DHT22;3085;49.444;11.054;2024-03-22T06:24:45;8.00;99.90
6110;DHT22;3085;49.444;11.054;2024-03-22T06:27:12;8.10;99.90
6110;DHT22;3085;49.444;11.054;2024-03-22T06:29:43;8.30;99.90
6110;DHT22;3085;49.444;11.054;2024-03-22T06:32:09;8.60;99.90
6110;DHT22;3085;49.444;11.054;2024-03-22T06:34:35;8.60;99.90
6110;DHT22;3085;49.444;11.054;2024-03-22T06:37:02;8.70;99.90
6110;DHT22;3085;49.444;11.054;2024-03-22T06:39:28;8.70;99.90
6110;DHT22;3085;49.444;11.054;2024-03-22T06:41:56;8.80;99.90
6110;DHT22;3085;49.444;11.054;2024-03-22T06:44:22;8.70;99.90
6110;DHT22;3085;49.444;11.054;2024-03-22T06:46:49;8.70;99.90
6110;DHT22;3085;49.444;11.054;2024-03-22T06:49:14;8.60;99.90
6110;DHT22;3085;49.444;11.054;2024-03-22T06:51:41;8.70;99.90
6110;DHT22;3085;49.444;11.054;2024-03-22T06:54:07;8.70;99.90
6110;DHT22;3085;49.444;11.054;2024-03-22T06:56:33;8.70;99.90
6110;DHT22;3085;49.444;11.054;2024-03-22T06:59:00;8.70;99.90
6110;DHT22;3085;49.444;11.054;2024-03-22T07:01:27;8.80;99.90
6110;DHT22;3085;49.444;11.054;2024-03-22T07:03:53;8.80;99.90
6110;DHT22;3085;49.444;11.054;2024-03-22T07:06:19;8.80;99.90
6110;DHT22;3085;49.444;11.054;2024-03-22T07:08:45;8.90;99.90
6110;DHT22;3085;49.444;11.054;2024-03-22T07:11:12;9.00;99.90
6110;DHT22;3085;49.444;11.054;2024-03-22T07:13:38;9.00;99.90
6110;DHT22;3085;49.444;11.054;2024-03-22T07:16:06;9.00;99.90
6110;DHT22;3085;49.444;11.054;2024-03-22T07:18:32;9.00;99.90
6110;DHT22;3085;49.444;11.054;2024-03-22T07:20:59;9.10;99.90
6110;DHT22;3085;49.444;11.054;2024-03-22T07:23:27;9.10;99.90
6110;DHT22;3085;49.444;11.054;2024-03-22T07:25:54;9.20;99.90
6110;DHT22;3085;49.444;11.054;2024-03-22T07:28:19;9.20;99.90
6110;DHT22;3085;49.444;11.054;2024-03-22T07:30:46;9.20;99.90
6110;DHT22;3085;49.444;11.054;2024-03-22T07:33:14;9.10;99.90
6110;DHT22;3085;49.444;11.054;2024-03-22T07:35:43;9.30;99.90
6110;DHT22;3085;49.444;11.054;2024-03-22T07:38:08;9.40;99.90
6110;DHT22;3085;49.444;11.054;2024-03-22T07:40:35;9.30;99.90
6110;DHT22;3085;49.444;11.054;2024-03-22T07:43:01;9.40;99.90
6110;DHT22;3085;49.444;11.054;2024-03-22T07:45:31;9.50;99.90
6110;DHT22;3085;49.444;11.054;2024-03-22T07:47:57;9.50;99.90
6110;DHT22;3085;49.444;11.054;2024-03-22T07:50:25;9.60;99.90
6110;DHT22;3085;49.444;11.054;2024-03-22T07:52:51;9.70;99.90
6110;DHT22;3085;49.444;11.054;2024-03-22T07:55:17;9.70;99.90
6110;DHT22;3085;49.444;11.054;2024-03-22T07:57:43;9.70;99.90
6110;DHT22;3085;49.444;11.054;2024-03-22T08:00:10;9.70;99.90
6110;DHT22;3085;49.444;11.054;2024-03-22T08:02:36;9.70;99.90
6110;DHT22;3085;49.444;11.054;2024-03-22T08:05:03;9.70;99.90
6110;DHT22;3085;49.444;11.054;2024-03-22T08:07:31;9.70;99.90
6110;DHT22;3085;49.444;11.054;2024-03-22T08:09:57;9.90;99.90
6110;DHT22;3085;49.444;11.054;2024-03-22T08:12:24;9.90;99.90
6110;DHT22;3085;49.444;11.054;2024-03-22T08:14:51;10.10;99.90
6110;DHT22;3085;49.444;11.054;2024-03-22T08:17:16;10.10;99.90
6110;DHT22;3085;49.444;11.054;2024-03-22T08:19:43;10.20;99.90
6110;DHT22;3085;49.444;11.054;2024-03-22T08:22:10;10.20;99.90
6110;DHT22;3085;49.444;11.054;2024-03-22T08:24:38;10.20;99.90
6110;DHT22;3085;49.444;11.054;2024-03-22T08:27:03;10.30;99.90
6110;DHT22;3085;49.444;11.054;2024-03-22T08:29:30;10.30;99.90
6110;DHT22;3085;49.444;11.054;2024-03-22T08:31:56;10.40;99.90
6110;DHT22;3085;49.444;11.054;2024-03-22T08:34:23;10.40;99.90
6110;DHT22;3085;49.444;11.054;2024-03-22T08:36:48;10.50;99.90
6110;DHT22;3085;49.444;11.054;2024-03-22T08:39:15;10.40;99.90
6110;DHT22;3085;49.444;11.054;2024-03-22T08:41:42;10.50;99.90
6110;DHT22;3085;49.444;11.054;2024-03-22T08:44:09;10.60;99.90
6110;DHT22;3085;49.444;11.054;2024-03-22T08:46:35;10.60;99.90
6110;DHT22;3085;49.444;11.054;2024-03-22T08:49:02;10.70;99.90
6110;DHT22;3085;49.444;11.054;2024-03-22T08:51:28;10.80;99.90
6110;DHT22;3085;49.444;11.054;2024-03-22T08:53:56;10.80;99.90
6110;DHT22;3085;49.444;11.054;2024-03-22T08:56:21;10.90;99.90
6110;DHT22;3085;49.444;11.054;2024-03-22T08:58:49;11.00;99.90
6110;DHT22;3085;49.444;11.054;2024-03-22T09:01:15;11.10;99.90
6110;DHT22;3085;49.444;11.054;2024-03-22T09:03:42;11.20;99.90
6110;DHT22;3085;49.444;11.054;2024-03-22T09:06:11;11.30;99.90
6110;DHT22;3085;49.444;11.054;2024-03-22T09:08:38;11.30;99.90
6110;DHT22;3085;49.444;11.054;2024-03-22T09:11:04;11.40;99.90
6110;DHT22;3085;49.444;11.054;2024-03-22T09:13:31;11.50;99.90
6110;DHT22;3085;49.444;11.054;2024-03-22T09:15:58;11.60;99.90
6110;DHT22;3085;49.444;11.054;2024-03-22T09:18:25;11.70;99.90
6110;DHT22;3085;49.444;11.054;2024-03-22T09:20:51;11.70;99.90
6110;DHT22;3085;49.444;11.054;2024-03-22T09:23:18;11.80;99.90
6110;DHT22;3085;49.444;11.054;2024-03-22T09:25:43;11.90;99.90
6110;DHT22;3085;49.444;11.054;2024-03-22T09:28:10;12.00;99.90
6110;DHT22;3085;49.444;11.054;2024-03-22T09:30:38;12.10;99.90
6110;DHT22;3085;49.444;11.054;2024-03-22T09:33:06;12.20;99.90
6110;DHT22;3085;49.444;11.054;2024-03-22T09:35:33;12.30;99.90
6110;DHT22;3085;49.444;11.054;2024-03-22T09:38:00;12.40;99.90
6110;DHT22;3085;49.444;11.054;2024-03-22T09:40:25;12.40;99.90
6110;DHT22;3085;49.444;11.054;2024-03-22T09:42:52;12.60;99.90
6110;DHT22;3085;49.444;11.054;2024-03-22T09:45:19;12.80;99.90
6110;DHT22;3085;49.444;11.054;2024-03-22T09:47:48;12.90;99.90
6110;DHT22;3085;49.444;11.054;2024-03-22T09:50:15;12.90;99.90
6110;DHT22;3085;49.444;11.054;2024-03-22T09:52:42;13.00;99.90
6110;DHT22;3085;49.444;11.054;2024-03-22T09:55:09;13.10;99.90
6110;DHT22;3085;49.444;11.054;2024-03-22T09:57:38;13.10;99.90
6110;DHT22;3085;49.444;11.054;2024-03-22T10:00:06;13.20;99.90
6110;DHT22;3085;49.444;11.054;2024-03-22T10:02:34;13.30;99.90
6110;DHT22;3085;49.444;11.054;2024-03-22T10:05:00;13.40;99.90
6110;DHT22;3085;49.444;11.054;2024-03-22T10:07:29;13.50;99.90
6110;DHT22;3085;49.444;11.054;2024-03-22T10:09:57;13.70;99.90
6110;DHT22;3085;49.444;11.054;2024-03-22T10:12:24;13.80;99.90
6110;DHT22;3085;49.444;11.054;2024-03-22T10:14:52;13.90;99.90
6110;DHT22;3085;49.444;11.054;2024-03-22T10:17:19;13.90;99.90
6110;DHT22;3085;49.444;11.054;2024-03-22T10:19:45;14.00;99.90
6110;DHT22;3085;49.444;11.054;2024-03-22T10:22:11;14.20;99.90
6110;DHT22;3085;49.444;11.054;2024-03-22T10:24:38;14.40;99.90
6110;DHT22;3085;49.444;11.054;2024-03-22T10:27:05;14.40;99.90
6110;DHT22;3085;49.444;11.054;2024-03-22T10:29:32;14.50;99.90
6110;DHT22;3085;49.444;11.054;2024-03-22T10:32:00;14.60;99.90
6110;DHT22;3085;49.444;11.054;2024-03-22T10:34:26;14.60;99.90
6110;DHT22;3085;49.444;11.054;2024-03-22T10:36:55;14.60;99.90
6110;DHT22;3085;49.444;11.054;2024-03-22T10:39:23;14.50;99.90
6110;DHT22;3085;49.444;11.054;2024-03-22T10:41:51;14.60;99.90
6110;DHT22;3085;49.444;11.054;2024-03-22T10:44:17;14.70;99.90
6110;DHT22;3085;49.444;11.054;2024-03-22T10:46:45;14.70;99.90
6110;DHT22;3085;49.444;11.054;2024-03-22T10:49:15;14.80;99.90
6110;DHT22;3085;49.444;11.054;2024-03-22T10:51:45;14.80;99.90
6110;DHT22;3085;49.444;11.054;2024-03-22T10:54:14;14.90;99.90
6110;DHT22;3085;49.444;11.054;2024-03-22T10:56:43;15.10;99.90
6110;DHT22;3085;49.444;11.054;2024-03-22T10:59:13;15.20;99.90
6110;DHT22;3085;49.444;11.054;2024-03-22T11:01:45;15.30;99.90
6110;DHT22;3085;49.444;11.054;2024-03-22T11:04:10;15.20;99.90
6110;DHT22;3085;49.444;11.054;2024-03-22T11:06:37;15.20;99.90
6110;DHT22;3085;49.444;11.054;2024-03-22T11:09:03;15.10;99.90
6110;DHT22;3085;49.444;11.054;2024-03-22T11:11:30;15.10;99.90
6110;DHT22;3085;49.444;11.054;2024-03-22T11:13:56;15.00;99.90
6110;DHT22;3085;49.444;11.054;2024-03-22T11:16:25;15.00;99.90
6110;DHT22;3085;49.444;11.054;2024-03-22T11:18:50;15.00;99.90
6110;DHT22;3085;49.444;11.054;2024-03-22T11:21:17;15.00;99.90
6110;DHT22;3085;49.444;11.054;2024-03-22T11:23:45;15.10;99.90
6110;DHT22;3085;49.444;11.054;2024-03-22T11:26:12;15.10;99.90
6110;DHT22;3085;49.444;11.054;2024-03-22T11:28:38;15.20;99.90
6110;DHT22;3085;49.444;11.054;2024-03-22T11:31:04;15.20;99.90
6110;DHT22;3085;49.444;11.054;2024-03-22T11:33:32;15.30;99.90
6110;DHT22;3085;49.444;11.054;2024-03-22T11:35:58;15.30;99.90
6110;DHT22;3085;49.444;11.054;2024-03-22T11:38:25;15.40;99.90
6110;DHT22;3085;49.444;11.054;2024-03-22T11:40:53;15.40;99.90
6110;DHT22;3085;49.444;11.054;2024-03-22T11:43:20;15.40;99.90
6110;DHT22;3085;49.444;11.054;2024-03-22T11:45:47;15.50;99.90
6110;DHT22;3085;49.444;11.054;2024-03-22T11:48:13;15.60;99.90
6110;DHT22;3085;49.444;11.054;2024-03-22T11:50:41;15.70;99.90
6110;DHT22;3085;49.444;11.054;2024-03-22T11:53:07;15.70;99.90
6110;DHT22;3085;49.444;11.054;2024-03-22T11:55:36;15.60;99.90
6110;DHT22;3085;49.444;11.054;2024-03-22T11:58:01;15.60;99.90
6110;DHT22;3085;49.444;11.054;2024-03-22T12:00:28;15.60;99.90
6110;DHT22;3085;49.444;11.054;2024-03-22T12:02:54;15.60;99.90
6110;DHT22;3085;49.444;11.054;2024-03-22T12:05:21;15.80;99.90
6110;DHT22;3085;49.444;11.054;2024-03-22T12:07:50;15.70;99.90
6110;DHT22;3085;49.444;11.054;2024-03-22T12:10:17;15.70;99.90
6110;DHT22;3085;49.444;11.054;2024-03-22T12:12:43;15.80;99.90
6110;DHT22;3085;49.444;11.054;2024-03-22T12:15:10;15.80;99.90
6110;DHT22;3085;49.444;11.054;2024-03-22T12:17:35;15.90;99.90
6110;DHT22;3085;49.444;11.054;2024-03-22T12:20:03;15.90;99.90
6110;DHT22;3085;49.444;11.054;2024-03-22T12:22:29;16.00;99.90
6110;DHT22;3085;49.444;11.054;2024-03-22T12:24:57;15.80;99.90
6110;DHT22;3085;49.444;11.054;2024-03-22T12:27:24;15.90;99.90
6110;DHT22;3085;49.444;11.054;2024-03-22T12:29:51;16.00;99.90
6110;DHT22;3085;49.444;11.054;2024-03-22T12:32:17;16.10;99.90
6110;DHT22;3085;49.444;11.054;2024-03-22T12:34:43;16.20;99.90
6110;DHT22;3085;49.444;11.054;2024-03-22T12:37:09;16.30;99.90
6110;DHT22;3085;49.444;11.054;2024-03-22T12:39:36;16.30;99.90
6110;DHT22;3085;49.444;11.054;2024-03-22T12:42:04;16.40;99.90
6110;DHT22;3085;49.444;11.054;2024-03-22T12:44:31;16.30;99.90
6110;DHT22;3085;49.444;11.054;2024-03-22T12:46:57;16.30;99.90
6110;DHT22;3085;49.444;11.054;2024-03-22T12:49:24;16.40;99.90
6110;DHT22;3085;49.444;11.054;2024-03-22T12:51:51;16.40;99.90
6110;DHT22;3085;49.444;11.054;2024-03-22T12:54:16;16.40;99.90
6110;DHT22;3085;49.444;11.054;2024-03-22T12:56:44;16.50;99.90
6110;DHT22;3085;49.444;11.054;2024-03-22T12:59:11;16.60;99.90
6110;DHT22;3085;49.444;11.054;2024-03-22T13:01:37;16.60;99.90
6110;DHT22;3085;49.444;11.054;2024-03-22T13:04:03;16.50;99.90
6110;DHT22;3085;49.444;11.054;2024-03-22T13:06:30;16.60;99.90
6110;DHT22;3085;49.444;11.054;2024-03-22T13:08:56;16.60;99.90
6110;DHT22;3085;49.444;11.054;2024-03-22T13:11:23;16.60;99.90
6110;DHT22;3085;49.444;11.054;2024-03-22T13:13:49;16.60;99.90
6110;DHT22;3085;49.444;11.054;2024-03-22T13:16:17;16.50;99.90
6110;DHT22;3085;49.444;11.054;2024-03-22T13:18:42;16.50;99.90
6110;DHT22;3085;49.444;11.054;2024-03-22T13:21:10;16.40;99.90
6110;DHT22;3085;49.444;11.054;2024-03-22T13:23:36;16.50;99.90
6110;DHT22;3085;49.444;11.054;2024-03-22T13:26:04;16.50;99.90
6110;DHT22;3085;49.444;11.054;2024-03-22T13:28:29;16.40;99.90
6110;DHT22;3085;49.444;11.054;2024-03-22T13:31:00;16.50;99.90
6110;DHT22;3085;49.444;11.054;2024-03-22T13:33:27;16.60;99.90
6110;DHT22;3085;49.444;11.054;2024-03-22T13:35:54;16.60;99.90
6110;DHT22;3085;49.444;11.054;2024-03-22T13:38:19;16.60;99.90
6110;DHT22;3085;49.444;11.054;2024-03-22T13:40:53;16.50;99.90
6110;DHT22;3085;49.444;11.054;2024-03-22T13:43:19;16.50;99.90
6110;DHT22;3085;49.444;11.054;2024-03-22T13:45:47;16.50;99.90
6110;DHT22;3085;49.444;11.054;2024-03-22T13:48:14;16.50;99.90
6110;DHT22;3085;49.444;11.054;2024-03-22T13:50:42;16.50;99.90
6110;DHT22;3085;49.444;11.054;2024-03-22T13:53:08;16.50;99.90
6110;DHT22;3085;49.444;11.054;2024-03-22T13:55:35;16.50;99.90
6110;DHT22;3085;49.444;11.054;2024-03-22T13:58:01;16.60;99.90
6110;DHT22;3085;49.444;11.054;2024-03-22T14:00:28;16.50;99.90
6110;DHT22;3085;49.444;11.054;2024-03-22T14:02:54;16.60;99.90
6110;DHT22;3085;49.444;11.054;2024-03-22T14:05:21;16.70;99.90
6110;DHT22;3085;49.444;11.054;2024-03-22T14:07:50;16.70;99.90
6110;DHT22;3085;49.444;11.054;2024-03-22T14:10:17;16.70;99.90
6110;DHT22;3085;49.444;11.054;2024-03-22T14:12:45;16.80;99.90
6110;DHT22;3085;49.444;11.054;2024-03-22T14:15:12;16.80;99.90
6110;DHT22;3085;49.444;11.054;2024-03-22T14:17:38;16.80;99.90
6110;DHT22;3085;49.444;11.054;2024-03-22T14:20:06;16.70;99.90
6110;DHT22;3085;49.444;11.054;2024-03-22T14:22:37;16.70;99.90
6110;DHT22;3085;49.444;11.054;2024-03-22T14:25:06;16.70;99.90
6110;DHT22;3085;49.444;11.054;2024-03-22T14:27:32;16.70;99.90
6110;DHT22;3085;49.444;11.054;2024-03-22T14:29:59;16.70;99.90
6110;DHT22;3085;49.444;11.054;2024-03-22T14:32:25;16.70;99.90
6110;DHT22;3085;49.444;11.054;2024-03-22T14:34:52;16.70;99.90
6110;DHT22;3085;49.444;11.054;2024-03-22T14:37:18;16.70;99.90
6110;DHT22;3085;49.444;11.054;2024-03-22T14:39:45;16.70;99.90
6110;DHT22;3085;49.444;11.054;2024-03-22T14:42:13;16.70;99.90
6110;DHT22;3085;49.444;11.054;2024-03-22T14:44:40;16.70;99.90
6110;DHT22;3085;49.444;11.054;2024-03-22T14:47:06;16.70;99.90
6110;DHT22;3085;49.444;11.054;2024-03-22T14:49:33;16.80;99.90
6110;DHT22;3085;49.444;11.054;2024-03-22T14:51:58;16.80;99.90
6110;DHT22;3085;49.444;11.054;2024-03-22T14:54:25;16.90;99.90
6110;DHT22;3085;49.444;11.054;2024-03-22T14:56:52;16.90;99.90
6110;DHT22;3085;49.444;11.054;2024-03-22T14:59:21;16.90;99.90
6110;DHT22;3085;49.444;11.054;2024-03-22T15:01:47;16.90;99.90
6110;DHT22;3085;49.444;11.054;2024-03-22T15:04:13;16.90;99.90
6110;DHT22;3085;49.444;11.054;2024-03-22T15:06:39;16.80;99.90
6110;DHT22;3085;49.444;11.054;2024-03-22T15:09:06;16.70;99.90
6110;DHT22;3085;49.444;11.054;2024-03-22T15:11:36;16.70;99.90
6110;DHT22;3085;49.444;11.054;2024-03-22T15:14:03;16.70;99.90
6110;DHT22;3085;49.444;11.054;2024-03-22T15:16:30;16.70;99.90
6110;DHT22;3085;49.444;11.054;2024-03-22T15:18:57;16.70;99.90
6110;DHT22;3085;49.444;11.054;2024-03-22T15:21:23;16.70;99.90
6110;DHT22;3085;49.444;11.054;2024-03-22T15:23:49;16.70;99.90
6110;DHT22;3085;49.444;11.054;2024-03-22T15:26:15;16.70;99.90
6110;DHT22;3085;49.444;11.054;2024-03-22T15:28:42;16.70;99.90
6110;DHT22;3085;49.444;11.054;2024-03-22T15:31:07;16.70;99.90
6110;DHT22;3085;49.444;11.054;2024-03-22T15:33:36;16.70;99.90
6110;DHT22;3085;49.444;11.054;2024-03-22T15:36:02;16.70;99.90
6110;DHT22;3085;49.444;11.054;2024-03-22T15:38:28;16.70;99.90
6110;DHT22;3085;49.444;11.054;2024-03-22T15:40:55;16.70;99.90
6110;DHT22;3085;49.444;11.054;2024-03-22T15:43:22;16.60;99.90
6110;DHT22;3085;49.444;11.054;2024-03-22T15:45:48;16.60;99.90
6110;DHT22;3085;49.444;11.054;2024-03-22T15:48:14;16.60;99.90